Time;durP1;ratioP1;P1;durP2;ratioP2;P2;SDS_P1;SDS_P2;PMS_P1;PMS_P2;Temp;Humidity;BMP_temperature;BMP_pressure;BME280_temperature;BME280_humidity;BME280_pressure;Samples;Min_cycle;Max_cycle;Signal;HPM_P1;HPM_P2
2022/01/01 00:01:41;;;;;;;5.43;3.47;;;11.30;99.90;;;;;;5034177;28;20282;-78
2022/01/01 00:04:08;;;;;;;5.87;3.53;;;11.30;99.90;;;;;;5034154;28;20282;-77
2022/01/01 00:06:35;;;;;;;6.53;3.90;;;11.30;99.90;;;;;;5033842;28;20198;-78
2022/01/01 00:09:03;;;;;;;4.60;3.60;;;11.30;99.90;;;;;;5033497;28;20206;-79
2022/01/01 00:11:31;;;;;;;5.27;3.60;;;11.30;99.90;;;;;;5034015;28;20240;-79
2022/01/01 00:13:58;;;;;;;4.60;3.47;;;11.30;99.90;;;;;;5034100;28;20199;-79
2022/01/01 00:16:25;;;;;;;6.50;4.20;;;11.30;99.90;;;;;;5033940;28;20197;-78
2022/01/01 00:18:52;;;;;;;9.33;5.47;;;11.30;99.90;;;;;;5033690;28;20194;-79
2022/01/01 00:21:19;;;;;;;7.77;5.40;;;11.30;99.90;;;;;;5033787;28;20194;-78
2022/01/01 00:23:46;;;;;;;8.50;5.07;;;11.20;99.90;;;;;;5034052;28;20215;-78
2022/01/01 00:26:14;;;;;;;7.50;5.20;;;11.30;99.90;;;;;;5033944;28;20255;-79
2022/01/01 00:28:42;;;;;;;8.27;5.00;;;11.20;99.90;;;;;;5033374;28;20197;-78
2022/01/01 00:31:09;;;;;;;7.73;4.80;;;11.20;99.90;;;;;;5033662;28;20189;-79
2022/01/01 00:33:37;;;;;;;9.37;4.53;;;11.20;99.90;;;;;;5033629;28;20287;-78
2022/01/01 00:36:04;;;;;;;9.73;4.20;;;11.20;99.90;;;;;;5033595;28;20198;-78
2022/01/01 00:38:31;;;;;;;7.77;4.33;;;11.30;99.90;;;;;;5033405;28;20228;-78
2022/01/01 00:40:58;;;;;;;7.17;4.40;;;11.20;99.90;;;;;;5033133;28;20255;-78
2022/01/01 00:43:25;;;;;;;5.83;3.73;;;11.20;99.90;;;;;;5033401;28;20267;-78
2022/01/01 00:45:53;;;;;;;7.70;4.13;;;11.20;99.90;;;;;;5033399;28;20236;-78
2022/01/01 00:48:20;;;;;;;6.33;3.80;;;11.20;99.90;;;;;;5033068;28;20201;-79
2022/01/01 00:50:47;;;;;;;8.40;3.77;;;11.20;99.90;;;;;;5033262;28;20242;-78
2022/01/01 00:53:14;;;;;;;6.00;3.83;;;11.20;99.90;;;;;;5033362;28;20199;-79
2022/01/01 00:55:41;;;;;;;4.53;3.10;;;11.20;99.90;;;;;;5033318;28;20198;-78
2022/01/01 00:58:08;;;;;;;5.57;3.50;;;11.20;99.90;;;;;;5033215;28;20255;-78
2022/01/01 01:00:35;;;;;;;5.23;3.80;;;11.20;99.90;;;;;;5032800;28;20648;-79
2022/01/01 01:03:09;;;;;;;5.20;3.73;;;11.20;99.90;;;;;;5032780;28;20748;-79
2022/01/01 01:05:38;;;;;;;7.37;4.10;;;11.10;99.90;;;;;;5033135;28;20179;-78
2022/01/01 01:08:05;;;;;;;7.33;4.10;;;11.20;99.90;;;;;;5032400;28;20630;-78
2022/01/01 01:10:32;;;;;;;6.50;3.53;;;11.10;99.90;;;;;;5032418;28;20256;-79
2022/01/01 01:12:59;;;;;;;5.60;3.40;;;11.10;99.90;;;;;;5032578;28;20288;-79
2022/01/01 01:15:26;;;;;;;4.83;2.53;;;11.10;99.90;;;;;;5032483;28;20204;-78
2022/01/01 01:17:55;;;;;;;4.63;3.30;;;11.20;99.90;;;;;;5032766;28;20197;-79
2022/01/01 01:20:24;;;;;;;4.53;2.80;;;11.10;99.90;;;;;;5032505;28;20236;-79
2022/01/01 01:22:51;;;;;;;5.10;2.60;;;11.10;99.90;;;;;;5032862;28;20217;-79
2022/01/01 01:25:20;;;;;;;6.33;2.57;;;11.10;99.90;;;;;;5032900;28;20248;-78
2022/01/01 01:27:48;;;;;;;5.07;2.93;;;11.10;99.90;;;;;;5033008;28;20566;-78
2022/01/01 01:30:16;;;;;;;3.80;2.30;;;11.10;99.90;;;;;;5032547;28;20233;-79
2022/01/01 01:32:46;;;;;;;4.13;2.80;;;11.10;99.90;;;;;;5032603;28;20232;-79
2022/01/01 01:35:14;;;;;;;4.20;2.67;;;11.10;99.90;;;;;;5032539;28;20203;-78
2022/01/01 01:37:42;;;;;;;4.73;2.70;;;11.10;99.90;;;;;;5032558;28;20225;-79
2022/01/01 01:40:10;;;;;;;3.93;2.37;;;11.10;99.90;;;;;;5032089;28;20198;-78
2022/01/01 01:42:37;;;;;;;4.17;2.57;;;11.10;99.90;;;;;;5031796;28;20239;-78
2022/01/01 01:45:11;;;;;;;3.20;2.50;;;11.10;99.90;;;;;;5023799;28;20199;-78
2022/01/01 01:47:39;;;;;;;3.33;2.47;;;11.10;99.90;;;;;;5012960;28;20240;-77
2022/01/01 01:50:08;;;;;;;3.87;2.90;;;11.10;99.90;;;;;;5012404;28;20567;-79
2022/01/01 01:52:37;;;;;;;5.77;3.40;;;11.10;99.90;;;;;;5012741;28;20197;-78
2022/01/01 01:55:08;;;;;;;8.43;3.87;;;11.10;99.90;;;;;;5012611;28;20210;-79
2022/01/01 01:57:36;;;;;;;7.10;4.50;;;11.10;99.90;;;;;;5012687;28;20186;-79
2022/01/01 02:00:06;;;;;;;5.10;2.90;;;11.10;99.90;;;;;;5012288;28;20204;-78
2022/01/01 02:02:34;;;;;;;5.53;3.20;;;11.10;99.90;;;;;;5012912;28;20306;-78
2022/01/01 02:05:01;;;;;;;7.10;3.33;;;11.10;99.90;;;;;;5012317;28;20199;-79
2022/01/01 02:07:28;;;;;;;7.20;3.53;;;11.10;99.90;;;;;;5012514;28;20256;-78
2022/01/01 02:09:55;;;;;;;5.53;3.30;;;11.10;99.90;;;;;;5030546;28;20195;-79
2022/01/01 02:12:24;;;;;;;7.50;3.80;;;11.10;99.90;;;;;;5032159;28;20655;-78
2022/01/01 02:15:07;;;;;;;6.13;3.77;;;11.10;99.90;;;;;;5032601;28;20205;-79
2022/01/01 02:17:35;;;;;;;5.73;3.20;;;11.10;99.90;;;;;;5032216;28;20193;-78
2022/01/01 02:20:12;;;;;;;5.73;3.50;;;11.10;99.90;;;;;;5032114;28;20194;-78
2022/01/01 02:22:46;;;;;;;5.33;3.57;;;11.10;99.90;;;;;;5034428;28;20575;-78
2022/01/01 02:25:13;;;;;;;5.97;3.50;;;11.10;99.90;;;;;;5036166;28;20220;-79
2022/01/01 02:27:41;;;;;;;5.13;3.73;;;11.20;99.90;;;;;;5035648;28;20648;-78
2022/01/01 02:30:10;;;;;;;6.90;4.40;;;11.10;99.90;;;;;;5035617;28;20198;-79
2022/01/01 02:32:38;;;;;;;5.83;4.17;;;11.20;99.90;;;;;;5035852;28;20206;-78
2022/01/01 02:35:08;;;;;;;9.97;5.73;;;11.20;99.90;;;;;;5035592;28;20204;-79
2022/01/01 02:37:36;;;;;;;7.10;4.20;;;11.20;99.90;;;;;;5035253;28;20245;-79
2022/01/01 02:40:04;;;;;;;6.10;4.00;;;11.20;99.90;;;;;;5035638;28;20197;-79
2022/01/01 02:42:32;;;;;;;5.40;3.47;;;11.20;99.90;;;;;;5035746;28;20300;-78
2022/01/01 02:44:59;;;;;;;7.23;3.40;;;11.20;99.90;;;;;;5035690;28;20256;-79
2022/01/01 02:47:27;;;;;;;4.60;2.80;;;11.20;99.90;;;;;;5035923;28;20199;-78
2022/01/01 02:49:54;;;;;;;4.43;2.40;;;11.20;99.90;;;;;;5035925;28;20192;-78
2022/01/01 02:52:23;;;;;;;3.70;2.50;;;11.20;99.90;;;;;;5035553;28;20199;-78
2022/01/01 02:54:49;;;;;;;5.90;2.63;;;11.20;99.90;;;;;;5035499;28;20251;-78
2022/01/01 02:57:17;;;;;;;3.97;2.63;;;11.20;99.90;;;;;;5035508;28;20199;-79
2022/01/01 02:59:44;;;;;;;3.80;2.57;;;11.20;99.90;;;;;;5035368;28;20609;-78
2022/01/01 03:02:11;;;;;;;4.53;2.50;;;11.30;99.90;;;;;;5035447;28;20190;-78
2022/01/01 03:04:38;;;;;;;4.00;2.27;;;11.30;99.90;;;;;;5035223;28;20218;-78
2022/01/01 03:07:06;;;;;;;5.17;2.83;;;11.30;99.90;;;;;;5035033;28;20547;-78
2022/01/01 03:09:35;;;;;;;3.83;2.77;;;11.30;99.90;;;;;;5034705;28;20655;-78
2022/01/01 03:12:02;;;;;;;4.27;2.70;;;11.30;99.90;;;;;;5035220;28;20307;-78
2022/01/01 03:14:29;;;;;;;6.83;2.57;;;11.30;99.90;;;;;;5034771;28;20202;-79
2022/01/01 03:16:56;;;;;;;4.00;2.80;;;11.30;99.90;;;;;;5035195;28;20240;-79
2022/01/01 03:19:23;;;;;;;3.13;2.60;;;11.30;99.90;;;;;;5034686;28;20206;-78
2022/01/01 03:21:50;;;;;;;3.43;2.50;;;11.30;99.90;;;;;;5035027;28;20199;-78
2022/01/01 03:24:18;;;;;;;3.97;2.57;;;11.30;99.90;;;;;;5035006;28;20273;-79
2022/01/01 03:26:46;;;;;;;4.80;2.50;;;11.30;99.90;;;;;;5034966;28;20202;-79
2022/01/01 03:29:14;;;;;;;3.40;2.30;;;11.30;99.90;;;;;;5034566;28;20657;-78
2022/01/01 03:31:41;;;;;;;4.03;2.50;;;11.30;99.90;;;;;;5034744;28;20259;-77
2022/01/01 03:34:08;;;;;;;3.87;2.50;;;11.30;99.90;;;;;;5034345;28;20197;-79
2022/01/01 03:36:35;;;;;;;4.83;2.60;;;11.30;99.90;;;;;;5034576;28;20263;-78
2022/01/01 03:39:02;;;;;;;3.83;2.77;;;11.30;99.90;;;;;;5034914;28;20238;-78
2022/01/01 03:41:29;;;;;;;6.10;3.20;;;11.30;99.90;;;;;;5034560;28;20205;-78
2022/01/01 03:43:57;;;;;;;6.13;3.00;;;11.30;99.90;;;;;;5034229;28;20217;-78
2022/01/01 03:46:24;;;;;;;5.87;3.53;;;11.30;99.90;;;;;;5033801;28;20189;-79
2022/01/01 03:48:51;;;;;;;7.13;4.30;;;11.20;99.90;;;;;;5034283;28;20199;-78
2022/01/01 03:51:18;;;;;;;7.50;3.37;;;11.20;99.90;;;;;;5034137;28;20194;-78
2022/01/01 03:53:45;;;;;;;10.03;3.60;;;11.20;99.90;;;;;;5034044;28;20677;-79
2022/01/01 03:56:14;;;;;;;9.30;3.70;;;11.20;99.90;;;;;;5034280;28;20248;-79
2022/01/01 03:58:41;;;;;;;8.17;3.73;;;11.20;99.90;;;;;;5033993;28;20201;-78
2022/01/01 04:01:10;;;;;;;6.53;3.80;;;11.20;99.90;;;;;;5034201;28;20193;-78
2022/01/01 04:03:38;;;;;;;7.90;3.93;;;11.10;99.90;;;;;;5034102;28;20268;-78
2022/01/01 04:06:06;;;;;;;6.53;4.23;;;11.10;99.90;;;;;;5034325;28;20194;-79
2022/01/01 04:08:32;;;;;;;7.67;4.30;;;11.10;99.90;;;;;;5034333;28;20198;-79
2022/01/01 04:10:59;;;;;;;8.17;3.97;;;11.10;99.90;;;;;;5034043;28;20606;-79
2022/01/01 04:13:26;;;;;;;8.43;4.20;;;11.10;99.90;;;;;;5034009;28;20232;-79
2022/01/01 04:15:53;;;;;;;8.83;4.10;;;11.10;99.90;;;;;;5034007;28;20197;-79
2022/01/01 04:18:29;;;;;;;10.37;4.50;;;11.20;99.90;;;;;;5033146;28;20197;-78
2022/01/01 04:20:56;;;;;;;7.07;4.10;;;11.20;99.90;;;;;;5033731;28;20192;-78
2022/01/01 04:23:24;;;;;;;9.10;4.37;;;11.10;99.90;;;;;;5033861;28;20298;-78
2022/01/01 04:25:51;;;;;;;9.13;4.30;;;11.20;99.90;;;;;;5033681;28;20193;-78
2022/01/01 04:28:18;;;;;;;8.23;4.20;;;11.20;99.90;;;;;;5033612;28;20682;-79
2022/01/01 04:30:45;;;;;;;8.20;4.60;;;11.20;99.90;;;;;;5033741;28;20255;-78
2022/01/01 04:33:12;;;;;;;7.33;4.03;;;11.20;99.90;;;;;;5033349;28;20202;-78
2022/01/01 04:35:40;;;;;;;7.80;4.03;;;11.20;99.90;;;;;;5033630;28;20247;-78
2022/01/01 04:38:16;;;;;;;6.53;4.00;;;11.30;99.90;;;;;;5033641;28;20231;-78
2022/01/01 04:40:43;;;;;;;7.57;3.60;;;11.20;99.90;;;;;;5033632;28;20284;-77
2022/01/01 04:43:10;;;;;;;6.50;3.50;;;11.30;99.90;;;;;;5033107;28;20218;-79
2022/01/01 04:45:37;;;;;;;11.10;3.80;;;11.30;99.90;;;;;;5032614;28;20201;-79
2022/01/01 04:48:05;;;;;;;5.43;3.30;;;11.30;99.90;;;;;;5033219;28;20187;-79
2022/01/01 04:50:32;;;;;;;5.40;3.27;;;11.30;99.90;;;;;;5033296;28;20248;-79
2022/01/01 04:53:01;;;;;;;5.73;3.03;;;11.30;99.90;;;;;;5033029;28;20198;-79
2022/01/01 04:55:28;;;;;;;6.30;3.07;;;11.30;99.90;;;;;;5032870;28;20723;-78
2022/01/01 04:57:55;;;;;;;5.97;2.93;;;11.30;99.90;;;;;;5033295;28;20747;-77
2022/01/01 05:00:22;;;;;;;5.87;2.93;;;11.30;99.90;;;;;;5032844;28;20288;-79
2022/01/01 05:02:49;;;;;;;6.70;3.10;;;11.30;99.90;;;;;;5033121;28;20245;-79
2022/01/01 05:05:16;;;;;;;4.43;2.60;;;11.30;99.90;;;;;;5033089;28;20267;-78
2022/01/01 05:07:44;;;;;;;10.00;3.10;;;11.30;99.90;;;;;;5032958;28;20205;-79
2022/01/01 05:10:13;;;;;;;6.63;3.23;;;11.30;99.90;;;;;;5033093;28;20198;-77
2022/01/01 05:12:40;;;;;;;7.50;2.83;;;11.30;99.90;;;;;;5032868;28;20194;-78
2022/01/01 05:15:07;;;;;;;9.67;3.30;;;11.40;99.90;;;;;;5032960;28;20247;-79
2022/01/01 05:17:35;;;;;;;6.23;3.20;;;11.40;99.90;;;;;;5032537;28;20194;-78
2022/01/01 05:20:02;;;;;;;7.53;3.20;;;11.40;99.90;;;;;;5032888;28;20198;-79
2022/01/01 05:22:29;;;;;;;4.80;2.83;;;11.30;99.90;;;;;;5032473;28;20653;-79
2022/01/01 05:24:59;;;;;;;5.40;3.00;;;11.40;99.90;;;;;;5032590;28;20212;-79
2022/01/01 05:27:28;;;;;;;8.53;3.20;;;11.30;99.90;;;;;;5032923;28;20730;-78
2022/01/01 05:29:55;;;;;;;7.10;3.10;;;11.30;99.90;;;;;;5032692;28;20202;-79
2022/01/01 05:32:22;;;;;;;5.73;3.23;;;11.30;99.90;;;;;;5032357;28;20219;-78
2022/01/01 05:34:49;;;;;;;10.03;3.20;;;11.30;99.90;;;;;;5032316;28;20199;-78
2022/01/01 05:37:16;;;;;;;5.93;3.30;;;11.30;99.90;;;;;;5032565;28;20235;-78
2022/01/01 05:39:43;;;;;;;8.03;3.20;;;11.40;99.90;;;;;;5032211;28;20211;-79
2022/01/01 05:42:10;;;;;;;6.50;3.40;;;11.40;99.90;;;;;;5032553;28;20241;-78
2022/01/01 05:44:39;;;;;;;6.53;3.30;;;11.40;99.90;;;;;;5032267;28;20213;-78
2022/01/01 05:47:06;;;;;;;6.53;3.13;;;11.40;99.90;;;;;;5032537;28;20196;-78
2022/01/01 05:49:33;;;;;;;6.23;3.33;;;11.40;99.90;;;;;;5032441;28;20262;-78
2022/01/01 05:52:00;;;;;;;7.03;3.30;;;11.40;99.90;;;;;;5032109;28;20679;-77
2022/01/01 05:54:28;;;;;;;7.17;3.07;;;11.40;99.90;;;;;;5032035;28;20207;-79
2022/01/01 05:56:55;;;;;;;9.97;3.40;;;11.40;99.90;;;;;;5032206;28;20197;-77
2022/01/01 05:59:22;;;;;;;13.73;6.10;;;11.40;99.90;;;;;;5032383;28;20191;-79
2022/01/01 06:01:50;;;;;;;9.10;5.90;;;11.40;99.90;;;;;;5032364;28;20198;-78
2022/01/01 06:04:17;;;;;;;23.17;11.33;;;11.40;99.90;;;;;;5032285;28;20222;-79
2022/01/01 06:06:44;;;;;;;32.70;15.63;;;11.40;99.90;;;;;;5032224;28;20190;-78
2022/01/01 06:09:11;;;;;;;75.73;33.80;;;11.40;99.90;;;;;;5032390;28;20602;-78
2022/01/01 06:11:38;;;;;;;69.80;29.33;;;11.40;99.90;;;;;;5032121;28;20247;-79
2022/01/01 06:14:05;;;;;;;109.43;41.37;;;11.40;99.90;;;;;;5032507;28;20281;-79
2022/01/01 06:16:32;;;;;;;108.67;37.20;;;11.40;99.90;;;;;;5031483;28;20662;-79
2022/01/01 06:19:00;;;;;;;76.57;29.73;;;11.40;99.90;;;;;;5031835;28;20647;-78
2022/01/01 06:21:27;;;;;;;95.63;33.40;;;11.30;99.90;;;;;;5032212;28;20574;-78
2022/01/01 06:23:54;;;;;;;54.40;20.97;;;11.40;99.90;;;;;;5031749;28;20693;-79
2022/01/01 06:26:21;;;;;;;137.70;50.10;;;11.30;99.90;;;;;;5031851;28;20241;-79
2022/01/01 06:28:48;;;;;;;59.17;20.20;;;11.40;99.90;;;;;;5032134;28;20256;-78
2022/01/01 06:31:15;;;;;;;80.33;28.83;;;11.40;99.90;;;;;;5032016;28;20191;-78
2022/01/01 06:33:42;;;;;;;99.00;31.33;;;11.30;99.90;;;;;;5031771;28;20649;-79
2022/01/01 06:36:12;;;;;;;96.20;31.80;;;11.40;99.90;;;;;;5032452;28;20228;-78
2022/01/01 06:38:40;;;;;;;111.93;34.43;;;11.30;99.90;;;;;;5031660;28;20761;-79
2022/01/01 06:41:07;;;;;;;89.30;31.73;;;11.30;99.90;;;;;;5031942;28;20198;-79
2022/01/01 06:43:34;;;;;;;76.70;25.57;;;11.30;99.90;;;;;;5031871;28;20626;-79
2022/01/01 06:46:01;;;;;;;107.37;37.67;;;11.30;99.90;;;;;;5031692;28;20194;-78
2022/01/01 06:48:28;;;;;;;106.47;35.60;;;11.30;99.90;;;;;;5031855;28;20197;-78
2022/01/01 06:50:55;;;;;;;58.77;22.00;;;11.20;99.90;;;;;;5031559;28;20606;-78
2022/01/01 06:53:23;;;;;;;69.87;24.63;;;11.20;99.90;;;;;;5031566;28;20197;-78
2022/01/01 06:55:53;;;;;;;55.77;22.23;;;11.20;99.90;;;;;;5031830;28;20194;-79
2022/01/01 06:58:20;;;;;;;79.23;30.50;;;11.20;99.90;;;;;;5031929;28;20560;-79
2022/01/01 07:00:47;;;;;;;114.40;39.17;;;11.20;99.90;;;;;;5031872;28;20197;-80
2022/01/01 07:03:14;;;;;;;63.20;24.87;;;11.10;99.90;;;;;;5032005;28;20198;-78
2022/01/01 07:05:40;;;;;;;72.07;29.97;;;11.20;99.90;;;;;;5031914;28;20213;-79
2022/01/01 07:08:07;;;;;;;56.03;22.73;;;11.20;99.90;;;;;;5031757;28;20229;-79
2022/01/01 07:10:37;;;;;;;60.37;24.67;;;11.10;99.90;;;;;;5037578;28;20638;-80
2022/01/01 07:13:07;;;;;;;52.93;23.27;;;11.20;99.90;;;;;;5040346;28;20199;-80
2022/01/01 07:15:34;;;;;;;46.67;20.53;;;11.20;99.90;;;;;;5035291;28;20191;-77
2022/01/01 07:18:01;;;;;;;74.83;35.80;;;11.20;99.90;;;;;;5035132;28;20234;-78
2022/01/01 07:20:28;;;;;;;81.83;36.90;;;11.20;99.90;;;;;;5035093;28;20282;-79
2022/01/01 07:22:55;;;;;;;48.40;20.63;;;11.20;99.90;;;;;;5034711;28;20224;-80
2022/01/01 07:25:22;;;;;;;44.67;23.00;;;11.30;99.90;;;;;;5035081;28;20227;-78
2022/01/01 07:27:51;;;;;;;49.03;24.53;;;11.30;99.90;;;;;;5034614;28;20201;-80
2022/01/01 07:30:18;;;;;;;40.83;19.37;;;11.30;99.90;;;;;;5034505;28;20258;-78
2022/01/01 07:32:47;;;;;;;23.27;11.30;;;11.30;99.90;;;;;;5034855;28;20191;-80
2022/01/01 07:35:16;;;;;;;23.27;11.33;;;11.30;99.90;;;;;;5035007;28;20194;-78
2022/01/01 07:37:43;;;;;;;29.13;13.33;;;11.30;99.90;;;;;;5034980;28;20290;-78
2022/01/01 07:40:12;;;;;;;21.37;10.27;;;11.30;99.90;;;;;;5034373;28;20653;-80
2022/01/01 07:42:40;;;;;;;20.83;9.13;;;11.30;99.90;;;;;;5034553;28;20226;-78
2022/01/01 07:45:10;;;;;;;22.83;11.17;;;11.20;99.90;;;;;;5034683;28;20225;-78
2022/01/01 07:47:37;;;;;;;15.50;6.20;;;11.10;99.90;;;;;;5034204;28;20659;-78
2022/01/01 07:50:08;;;;;;;11.20;7.47;;;11.10;99.90;;;;;;5034592;28;20256;-80
2022/01/01 07:52:35;;;;;;;8.87;4.47;;;11.10;99.90;;;;;;5038385;28;20679;-78
2022/01/01 07:55:02;;;;;;;9.83;4.97;;;11.00;99.90;;;;;;5038669;28;20247;-78
2022/01/01 07:57:29;;;;;;;8.67;4.63;;;11.00;99.90;;;;;;5039751;28;20203;-79
2022/01/01 07:59:56;;;;;;;11.40;6.13;;;11.00;99.90;;;;;;5039356;28;20255;-82
2022/01/01 08:02:25;;;;;;;12.63;6.07;;;11.00;99.90;;;;;;5038574;28;20208;-78
2022/01/01 08:04:52;;;;;;;12.10;8.83;;;11.00;99.90;;;;;;5036713;28;20217;-80
2022/01/01 08:07:19;;;;;;;12.17;8.67;;;11.00;99.90;;;;;;5040601;28;20194;-79
2022/01/01 08:09:46;;;;;;;14.83;10.30;;;11.00;99.90;;;;;;5039143;28;20247;-78
2022/01/01 08:12:13;;;;;;;10.93;7.90;;;11.00;99.90;;;;;;5038630;28;20197;-78
2022/01/01 08:14:40;;;;;;;9.40;7.00;;;11.00;99.90;;;;;;5038897;28;20197;-80
2022/01/01 08:17:07;;;;;;;15.27;10.80;;;11.00;99.90;;;;;;5039095;28;20191;-80
2022/01/01 08:19:36;;;;;;;19.57;13.30;;;11.00;99.90;;;;;;5033464;28;20607;-78
2022/01/01 08:22:04;;;;;;;23.03;14.63;;;11.10;99.90;;;;;;5037589;28;20298;-78
2022/01/01 08:24:31;;;;;;;28.33;17.87;;;11.10;99.90;;;;;;5038393;28;20215;-80
2022/01/01 08:27:01;;;;;;;27.30;18.03;;;11.10;99.90;;;;;;5036082;28;20201;-79
2022/01/01 08:29:29;;;;;;;14.33;8.93;;;11.10;99.90;;;;;;5037720;28;20664;-79
2022/01/01 08:31:57;;;;;;;22.60;10.00;;;11.10;99.90;;;;;;5041395;28;20198;-79
2022/01/01 08:34:24;;;;;;;16.93;7.93;;;11.20;99.90;;;;;;5035237;28;20670;-77
2022/01/01 08:36:53;;;;;;;12.63;7.63;;;11.20;99.90;;;;;;5035201;28;20296;-82
2022/01/01 08:39:20;;;;;;;13.47;7.13;;;11.20;99.90;;;;;;5037394;28;20252;-79
2022/01/01 08:41:48;;;;;;;30.73;14.97;;;11.30;99.90;;;;;;5034572;28;20187;-81
2022/01/01 08:44:15;;;;;;;17.10;8.73;;;11.40;99.90;;;;;;5035707;28;20199;-79
2022/01/01 08:46:43;;;;;;;16.63;7.70;;;11.40;99.90;;;;;;5034610;28;20203;-81
2022/01/01 08:49:13;;;;;;;22.93;11.83;;;11.40;99.90;;;;;;5037073;28;20219;-82
2022/01/01 08:51:42;;;;;;;30.53;14.07;;;11.50;99.90;;;;;;5036736;28;20194;-78
2022/01/01 08:54:13;;;;;;;42.50;19.53;;;11.60;99.90;;;;;;5035664;28;20239;-80
2022/01/01 08:56:40;;;;;;;45.83;22.47;;;11.60;99.90;;;;;;5035040;28;20614;-79
2022/01/01 08:59:07;;;;;;;25.40;19.73;;;11.60;99.90;;;;;;5034992;28;20197;-80
2022/01/01 09:01:34;;;;;;;23.93;11.43;;;11.70;99.90;;;;;;5036401;28;20196;-79
2022/01/01 09:04:01;;;;;;;13.13;4.90;;;11.70;99.90;;;;;;5032487;28;20250;-80
2022/01/01 09:06:28;;;;;;;19.37;9.63;;;11.70;99.90;;;;;;5033019;28;20282;-79
2022/01/01 09:08:55;;;;;;;56.73;24.30;;;11.70;99.90;;;;;;5033126;28;20198;-81
2022/01/01 09:11:24;;;;;;;90.60;30.63;;;11.80;99.90;;;;;;5032910;28;20649;-80
2022/01/01 09:13:51;;;;;;;146.40;56.10;;;11.80;99.90;;;;;;5036052;28;20661;-81
2022/01/01 09:16:20;;;;;;;63.30;26.40;;;11.70;99.90;;;;;;5036334;28;20204;-78
2022/01/01 09:18:48;;;;;;;82.13;30.90;;;11.70;99.90;;;;;;5036007;28;20205;-76
2022/01/01 09:21:16;;;;;;;44.87;17.60;;;11.70;99.90;;;;;;5032556;28;20263;-79
2022/01/01 09:23:43;;;;;;;90.30;37.63;;;11.70;99.90;;;;;;5032436;28;20211;-79
2022/01/01 09:26:16;;;;;;;57.73;24.50;;;11.60;99.90;;;;;;5034039;28;20281;-81
2022/01/01 09:28:45;;;;;;;44.63;22.47;;;11.60;99.90;;;;;;5036389;28;20229;-79
2022/01/01 09:31:14;;;;;;;53.20;26.60;;;11.60;99.90;;;;;;5033730;28;20198;-81
2022/01/01 09:33:42;;;;;;;33.83;16.73;;;11.60;99.90;;;;;;5034882;28;20250;-81
2022/01/01 09:36:14;;;;;;;66.73;31.97;;;11.60;99.90;;;;;;5034918;28;20558;-80
2022/01/01 09:38:42;;;;;;;32.80;17.87;;;11.50;99.90;;;;;;5035421;28;20296;-80
2022/01/01 09:41:10;;;;;;;33.93;15.30;;;11.40;99.90;;;;;;5035020;28;20221;-80
2022/01/01 09:43:37;;;;;;;25.80;15.00;;;11.40;99.90;;;;;;5035943;28;20616;-80
2022/01/01 09:46:12;;;;;;;19.27;9.73;;;11.40;99.90;;;;;;5036410;28;20219;-81
2022/01/01 09:48:39;;;;;;;28.53;16.63;;;11.30;99.90;;;;;;5036454;28;20192;-80
2022/01/01 09:51:08;;;;;;;27.33;16.27;;;11.30;99.90;;;;;;5036749;28;20593;-81
2022/01/01 09:53:36;;;;;;;19.47;12.33;;;11.30;99.90;;;;;;5036114;28;20205;-78
2022/01/01 09:56:09;;;;;;;18.73;11.77;;;11.30;99.90;;;;;;5034837;28;20715;-80
2022/01/01 09:58:46;;;;;;;15.33;9.30;;;11.30;99.90;;;;;;5039598;28;20591;-81
2022/01/01 10:01:15;;;;;;;16.83;10.20;;;11.30;99.90;;;;;;5036272;28;20192;-80
2022/01/01 10:03:48;;;;;;;14.87;6.40;;;11.30;99.90;;;;;;5038657;28;20195;-80
2022/01/01 10:06:17;;;;;;;11.50;6.73;;;11.30;99.90;;;;;;5039158;28;20219;-78
2022/01/01 10:08:50;;;;;;;13.37;7.30;;;11.30;99.90;;;;;;5037916;28;20699;-78
2022/01/01 10:11:19;;;;;;;12.47;7.60;;;11.30;99.90;;;;;;5038179;28;20186;-79
2022/01/01 10:13:47;;;;;;;14.33;7.67;;;11.30;99.90;;;;;;5036131;28;20548;-78
2022/01/01 10:16:21;;;;;;;32.83;21.50;;;11.30;99.90;;;;;;5039489;28;20567;-83
2022/01/01 10:18:50;;;;;;;19.57;11.57;;;11.30;99.90;;;;;;5038823;28;20597;-78
2022/01/01 10:21:19;;;;;;;21.07;10.77;;;11.30;99.90;;;;;;5039187;28;20221;-82
2022/01/01 10:23:49;;;;;;;16.03;10.20;;;11.30;99.90;;;;;;5038001;28;20724;-78
2022/01/01 10:29:08;;;;;;;15.67;7.20;;;11.30;99.90;;;;;;5035424;28;20185;-83
2022/01/01 10:31:38;;;;;;;14.50;7.10;;;11.30;99.90;;;;;;5033385;28;20630;-80
2022/01/01 10:34:14;;;;;;;14.17;7.80;;;11.30;99.90;;;;;;5033456;28;20274;-77
2022/01/01 10:36:48;;;;;;;9.47;5.63;;;11.40;99.90;;;;;;5040249;28;20170;-81
2022/01/01 10:39:18;;;;;;;9.40;5.17;;;11.40;99.90;;;;;;5040907;28;20168;-78
2022/01/01 10:41:47;;;;;;;12.67;8.67;;;11.40;99.90;;;;;;5039989;28;20187;-77
2022/01/01 10:44:21;;;;;;;14.63;9.40;;;11.40;99.90;;;;;;5041399;28;20194;-78
2022/01/01 10:46:52;;;;;;;16.83;11.23;;;11.40;99.90;;;;;;5037809;28;20736;-82
2022/01/01 10:52:25;;;;;;;8.53;7.57;;;11.30;99.90;;;;;;5044912;28;20178;-78
2022/01/01 10:54:56;;;;;;;11.30;7.60;;;11.40;99.90;;;;;;5040763;28;20509;-77
2022/01/01 10:57:33;;;;;;;10.80;7.87;;;11.30;99.90;;;;;;5043990;28;20578;-82
2022/01/01 11:00:10;;;;;;;1999.90;999.90;;;11.30;99.90;;;;;;5039844;28;20180;-78
2022/01/01 11:02:46;;;;;;;1999.90;999.90;;;11.30;99.90;;;;;;5043201;28;20191;-78
2022/01/01 11:05:13;;;;;;;38.70;11.80;;;11.30;99.90;;;;;;5045640;28;20198;-80
2022/01/01 11:07:51;;;;;;;9.30;5.50;;;11.30;99.90;;;;;;5042078;28;20199;-80
2022/01/01 11:10:19;;;;;;;29.10;13.20;;;11.30;99.90;;;;;;5045643;28;20244;-78
2022/01/01 11:12:47;;;;;;;60.10;32.63;;;11.30;99.90;;;;;;5043621;28;20220;-80
2022/01/01 11:15:21;;;;;;;18.23;12.27;;;11.30;99.90;;;;;;5043807;28;20618;-78
2022/01/01 11:17:56;;;;;;;28.90;15.60;;;11.30;99.90;;;;;;5043737;28;20199;-82
2022/01/01 11:20:33;;;;;;;30.40;14.13;;;11.30;99.90;;;;;;5042680;28;20167;-80
2022/01/01 11:23:04;;;;;;;47.57;20.93;;;11.30;99.90;;;;;;5045047;28;20186;-78
2022/01/01 11:25:34;;;;;;;34.73;16.23;;;11.30;99.90;;;;;;5039076;28;20219;-81
2022/01/01 11:28:02;;;;;;;79.70;34.50;;;11.30;99.90;;;;;;5041827;28;20193;-82
2022/01/01 11:30:30;;;;;;;64.63;29.70;;;11.30;99.90;;;;;;5037544;28;20197;-80
2022/01/01 11:33:04;;;;;;;12.30;8.80;;;11.30;99.90;;;;;;5037551;28;20281;-83
2022/01/01 11:35:42;;;;;;;8.80;5.07;;;11.30;99.90;;;;;;5037368;28;20271;-78
2022/01/01 11:38:13;;;;;;;14.83;9.33;;;11.30;99.90;;;;;;5039190;28;20231;-80
2022/01/01 11:40:57;;;;;;;12.90;9.87;;;11.40;99.90;;;;;;5041231;28;20190;-84
2022/01/01 11:43:37;;;;;;;12.63;8.37;;;11.40;99.90;;;;;;5038165;28;20211;-80
2022/01/01 11:46:11;;;;;;;13.33;9.33;;;11.40;99.90;;;;;;5038401;28;20205;-80
2022/01/01 11:48:54;;;;;;;12.93;8.40;;;11.30;99.90;;;;;;5021295;28;20217;-83
2022/01/01 11:51:26;;;;;;;12.60;10.70;;;11.30;99.90;;;;;;5039581;28;20214;-85
2022/01/01 11:54:27;;;;;;;10.90;6.83;;;11.40;99.90;;;;;;5043258;28;20284;-81
2022/01/01 11:57:04;;;;;;;10.90;8.30;;;11.30;99.90;;;;;;5023585;28;20286;-82
2022/01/01 11:59:33;;;;;;;14.17;6.20;;;11.30;99.90;;;;;;5023002;28;20193;-80
2022/01/01 12:02:04;;;;;;;16.03;8.43;;;11.30;99.90;;;;;;5028358;28;20185;-86
2022/01/01 12:04:34;;;;;;;9.73;5.67;;;11.30;99.90;;;;;;5044464;28;20602;-82
2022/01/01 12:07:12;;;;;;;12.00;4.80;;;11.30;99.90;;;;;;5041375;28;20277;-83
2022/01/01 12:10:11;;;;;;;12.90;5.80;;;11.30;99.90;;;;;;5041749;28;20701;-82
2022/01/01 12:12:40;;;;;;;14.47;5.87;;;11.40;99.90;;;;;;5040958;28;20194;-83
2022/01/01 12:15:21;;;;;;;17.23;5.60;;;11.30;99.90;;;;;;5043521;28;20214;-85
2022/01/01 12:17:53;;;;;;;11.23;5.17;;;11.40;99.90;;;;;;5042486;28;20187;-86
2022/01/01 12:20:29;;;;;;;16.60;5.33;;;11.40;99.90;;;;;;5040904;28;20200;-88
2022/01/01 12:23:38;;;;;;;20.03;12.23;;;11.40;99.90;;;;;;5041139;28;20192;-83
2022/01/01 12:26:10;;;;;;;19.33;10.80;;;11.40;99.90;;;;;;5038457;28;20625;-85
2022/01/01 12:28:38;;;;;;;21.10;12.13;;;11.40;99.90;;;;;;5034151;28;20244;-83
2022/01/01 12:31:08;;;;;;;19.27;10.97;;;11.40;99.90;;;;;;5038195;28;20316;-82
2022/01/01 12:33:54;;;;;;;22.13;11.80;;;11.40;99.90;;;;;;5039342;28;20205;-83
2022/01/01 12:36:35;;;;;;;22.90;9.33;;;11.40;99.90;;;;;;5039577;28;20203;-82
2022/01/01 12:39:07;;;;;;;22.97;12.53;;;11.40;99.90;;;;;;5036736;28;20547;-82
2022/01/01 12:41:36;;;;;;;29.03;16.90;;;11.40;99.90;;;;;;5018865;28;20195;-82
2022/01/01 12:44:17;;;;;;;27.40;14.20;;;11.40;99.90;;;;;;5024618;28;20198;-82
2022/01/01 12:47:01;;;;;;;35.17;19.03;;;11.40;99.90;;;;;;5036523;28;20223;-84
2022/01/01 12:49:32;;;;;;;35.33;16.47;;;11.40;99.90;;;;;;5037660;28;20218;-84
2022/01/01 12:52:04;;;;;;;23.70;10.70;;;11.40;99.90;;;;;;5036812;28;20186;-85
2022/01/01 12:54:32;;;;;;;22.50;9.70;;;11.40;99.90;;;;;;5040299;28;20210;-83